createdAt,value
2019-04-25T00:00:48.463Z,10.80
2019-04-25T00:03:19.632Z,10.80
2019-04-25T00:05:49.319Z,10.70
2019-04-25T00:08:19.123Z,10.70
2019-04-25T00:10:48.462Z,10.60
2019-04-25T00:13:17.735Z,10.60
2019-04-25T00:15:48.093Z,10.60
2019-04-25T00:18:17.384Z,10.60
2019-04-25T00:20:48.807Z,10.50
2019-04-25T00:23:19.329Z,10.50
2019-04-25T00:25:53.251Z,10.50
2019-04-25T00:28:22.512Z,10.50
2019-04-25T00:30:53.082Z,10.40
2019-04-25T00:33:22.681Z,10.40
2019-04-25T00:35:52.764Z,10.40
2019-04-25T00:38:22.409Z,10.30
2019-04-25T00:40:52.442Z,10.40
2019-04-25T00:43:22.914Z,10.40
2019-04-25T00:45:52.747Z,10.30
2019-04-25T00:48:22.374Z,10.30
2019-04-25T00:50:54.474Z,10.20
2019-04-25T00:53:22.735Z,10.20
2019-04-25T00:55:53.615Z,10.20
2019-04-25T00:58:43.091Z,10.10
2019-04-25T01:01:29.014Z,10.10
2019-04-25T01:03:58.623Z,10.00
2019-04-25T01:06:28.234Z,10.00
2019-04-25T01:08:57.757Z,10.00
2019-04-25T01:11:27.022Z,9.90
2019-04-25T01:13:56.542Z,9.90
2019-04-25T01:16:26.058Z,9.90
2019-04-25T01:18:55.660Z,9.90
2019-04-25T01:21:25.350Z,9.80
2019-04-25T01:23:55.703Z,9.80
2019-04-25T01:26:25.231Z,9.80
2019-04-25T01:28:54.964Z,9.80
2019-04-25T01:31:25.976Z,9.80
2019-04-25T01:33:55.701Z,9.70
2019-04-25T01:36:36.223Z,9.70
2019-04-25T01:39:21.660Z,9.70
2019-04-25T01:41:58.528Z,9.70
2019-04-25T01:44:29.828Z,9.70
2019-04-25T01:46:59.167Z,9.70
2019-04-25T01:49:28.728Z,9.60
2019-04-25T01:51:59.249Z,9.60
2019-04-25T01:54:29.073Z,9.60
2019-04-25T01:56:59.332Z,9.60
2019-04-25T01:59:28.916Z,9.60
2019-04-25T02:01:58.873Z,9.60
2019-04-25T02:04:28.125Z,9.60
2019-04-25T02:06:57.391Z,9.60
2019-04-25T02:09:26.799Z,9.60
2019-04-25T02:11:57.710Z,9.60
2019-04-25T02:14:26.976Z,9.60
2019-04-25T02:16:57.244Z,9.70
2019-04-25T02:19:27.484Z,9.60
2019-04-25T02:21:57.812Z,9.70
2019-04-25T02:24:27.156Z,9.80
2019-04-25T02:26:57.260Z,9.70
2019-04-25T02:29:26.578Z,9.70
2019-04-25T02:31:59.189Z,9.60
2019-04-25T02:34:27.152Z,9.60
2019-04-25T02:36:59.506Z,9.60
2019-04-25T02:39:27.679Z,9.60
2019-04-25T02:42:00.290Z,9.60
2019-04-25T02:44:28.196Z,9.50
2019-04-25T02:47:08.494Z,9.50
2019-04-25T02:49:45.274Z,9.50
2019-04-25T02:52:18.041Z,9.50
2019-04-25T02:54:47.176Z,9.50
2019-04-25T02:57:16.458Z,9.50
2019-04-25T02:59:45.731Z,9.50
2019-04-25T03:02:15.660Z,9.50
2019-04-25T03:04:45.106Z,9.60
2019-04-25T03:07:17.521Z,9.50
2019-04-25T03:09:45.945Z,9.50
2019-04-25T03:12:29.181Z,9.60
2019-04-25T03:14:46.275Z,9.50
2019-04-25T03:17:15.827Z,9.50
2019-04-25T03:19:46.746Z,9.50
2019-04-25T03:22:20.089Z,9.50
2019-04-25T03:24:49.737Z,9.50
2019-04-25T03:27:19.004Z,9.50
2019-04-25T03:29:48.276Z,9.50
2019-04-25T03:32:20.008Z,9.50
2019-04-25T03:34:48.543Z,9.50
2019-04-25T03:37:17.795Z,9.40
2019-04-25T03:39:47.063Z,9.40
2019-04-25T03:42:16.333Z,9.30
2019-04-25T03:44:45.597Z,9.30
2019-04-25T03:47:14.860Z,9.30
2019-04-25T03:49:44.120Z,9.30
2019-04-25T03:52:14.210Z,9.20
2019-04-25T03:54:43.891Z,9.20
2019-04-25T03:57:14.642Z,9.20
2019-04-25T03:59:44.931Z,9.20
2019-04-25T04:02:15.225Z,9.10
2019-04-25T04:04:44.535Z,9.10
2019-04-25T04:07:14.753Z,9.10
2019-04-25T04:09:45.466Z,9.20
2019-04-25T04:12:15.742Z,9.10
2019-04-25T04:14:45.121Z,9.10
2019-04-25T04:17:34.404Z,9.10
2019-04-25T04:20:07.158Z,9.20
2019-04-25T04:22:54.491Z,9.20
2019-04-25T04:25:24.137Z,9.10
2019-04-25T04:27:53.869Z,9.10
2019-04-25T04:30:24.168Z,9.10
2019-04-25T04:32:53.793Z,9.00
2019-04-25T04:35:23.558Z,9.00
2019-04-25T04:37:54.167Z,9.00
2019-04-25T04:40:24.290Z,9.00
2019-04-25T04:42:53.857Z,9.00
2019-04-25T04:45:23.354Z,9.00
2019-04-25T04:47:53.316Z,9.00
2019-04-25T04:50:23.291Z,9.00
2019-04-25T04:52:54.168Z,9.00
2019-04-25T04:55:23.440Z,9.00
2019-04-25T04:57:54.175Z,9.00
2019-04-25T05:00:25.149Z,9.00
2019-04-25T05:03:13.050Z,9.00
2019-04-25T05:05:56.935Z,9.10
2019-04-25T05:08:36.826Z,9.10
2019-04-25T05:11:06.106Z,9.10
2019-04-25T05:13:35.376Z,9.10
2019-04-25T05:16:04.647Z,9.20
2019-04-25T05:18:39.489Z,9.20
2019-04-25T05:21:04.923Z,9.30
2019-04-25T05:23:34.468Z,9.30
2019-04-25T05:26:04.377Z,9.30
2019-04-25T05:28:33.796Z,9.40
2019-04-25T05:31:10.633Z,9.50
2019-04-25T05:33:39.938Z,9.50
2019-04-25T05:36:09.522Z,9.60
2019-04-25T05:38:38.788Z,9.60
2019-04-25T05:41:28.093Z,9.70
2019-04-25T05:43:57.363Z,9.70
2019-04-25T05:46:26.894Z,9.80
2019-04-25T05:48:56.164Z,10.00
2019-04-25T05:51:25.978Z,10.10
2019-04-25T05:53:55.298Z,10.30
2019-04-25T05:56:26.866Z,10.30
2019-04-25T05:58:55.640Z,10.40
2019-04-25T06:01:27.593Z,10.40
2019-04-25T06:03:55.917Z,10.50
2019-04-25T06:06:26.070Z,10.60
2019-04-25T06:09:04.137Z,10.70
2019-04-25T06:11:37.737Z,10.70
2019-04-25T06:14:08.655Z,10.70
2019-04-25T06:16:38.409Z,10.70
2019-04-25T06:19:16.385Z,10.80
2019-04-25T06:21:43.530Z,11.00
2019-04-25T06:24:14.559Z,11.00
2019-04-25T06:26:53.852Z,11.10
2019-04-25T06:29:23.942Z,11.20
2019-04-25T06:32:04.189Z,11.20
2019-04-25T06:34:28.393Z,11.30
2019-04-25T06:36:56.739Z,11.40
2019-04-25T06:39:26.402Z,11.40
2019-04-25T06:41:55.623Z,11.70
2019-04-25T06:44:29.511Z,11.70
2019-04-25T06:47:09.376Z,11.70
2019-04-25T06:49:47.353Z,11.70
2019-04-25T06:52:16.650Z,11.80
2019-04-25T06:54:46.213Z,12.00
2019-04-25T06:57:15.815Z,12.00
2019-04-25T06:59:45.408Z,12.20
2019-04-25T07:02:14.759Z,12.30
2019-04-25T07:04:45.660Z,12.40
2019-04-25T07:07:15.371Z,12.50
2019-04-25T07:09:45.002Z,12.60
2019-04-25T07:12:14.587Z,12.70
2019-04-25T07:14:44.089Z,12.80
2019-04-25T07:17:14.307Z,12.90
2019-04-25T07:19:44.163Z,13.00
2019-04-25T07:22:13.923Z,13.10
2019-04-25T07:24:44.713Z,13.30
2019-04-25T07:27:15.928Z,13.30
2019-04-25T07:30:03.929Z,13.30
2019-04-25T07:32:35.745Z,13.60
2019-04-25T07:35:06.701Z,13.60
2019-04-25T07:37:37.350Z,13.90
2019-04-25T07:40:08.567Z,14.10
2019-04-25T07:42:38.077Z,14.10
2019-04-25T07:45:09.151Z,14.30
2019-04-25T07:47:38.457Z,14.40
2019-04-25T07:50:08.630Z,14.60
2019-04-25T07:52:37.898Z,14.80
2019-04-25T07:55:07.602Z,15.10
2019-04-25T07:57:37.119Z,15.30
2019-04-25T08:00:15.643Z,15.40
2019-04-25T08:02:45.354Z,15.60
2019-04-25T08:05:18.036Z,15.60
2019-04-25T08:07:47.374Z,15.60
2019-04-25T08:10:18.480Z,16.00
2019-04-25T08:12:47.761Z,16.00
2019-04-25T08:15:18.908Z,16.00
2019-04-25T08:18:03.934Z,16.30
2019-04-25T08:20:34.740Z,16.40
2019-04-25T08:23:05.369Z,16.40
2019-04-25T08:25:37.664Z,16.50
2019-04-25T08:28:05.837Z,16.80
2019-04-25T08:30:36.401Z,16.70
2019-04-25T08:33:06.292Z,16.70
2019-04-25T08:35:36.553Z,16.70
2019-04-25T08:38:06.177Z,17.00
2019-04-25T08:40:37.304Z,17.20
2019-04-25T08:43:06.929Z,17.10
2019-04-25T08:48:07.357Z,17.50
2019-04-25T08:50:54.401Z,17.60
2019-04-25T08:53:25.308Z,17.80
2019-04-25T08:55:56.567Z,17.80
2019-04-25T08:58:45.295Z,17.90
2019-04-25T09:01:18.871Z,17.90
2019-04-25T09:03:58.657Z,18.00
2019-04-25T09:06:27.933Z,18.00
2019-04-25T09:08:57.205Z,18.20
2019-04-25T09:11:26.890Z,18.50
2019-04-25T09:13:56.156Z,18.50
2019-04-25T09:16:25.424Z,18.30
2019-04-25T09:18:54.992Z,18.60
2019-04-25T09:21:24.600Z,18.70
2019-04-25T09:23:53.881Z,18.60
2019-04-25T09:26:24.145Z,19.00
2019-04-25T09:28:53.752Z,19.20
2019-04-25T09:31:23.690Z,19.30
2019-04-25T09:33:54.634Z,19.30
2019-04-25T09:36:24.134Z,19.50
2019-04-25T09:38:55.036Z,19.60
2019-04-25T09:41:24.315Z,19.80
2019-04-25T09:43:55.225Z,20.20
2019-04-25T09:46:26.413Z,20.40
2019-04-25T09:49:06.767Z,20.70
2019-04-25T09:51:38.018Z,20.50
2019-04-25T09:54:25.512Z,20.50
2019-04-25T09:57:05.679Z,20.80
2019-04-25T09:59:35.286Z,20.40
2019-04-25T10:02:07.420Z,20.20
2019-04-25T10:04:36.912Z,20.70
2019-04-25T10:07:07.029Z,20.80
2019-04-25T10:09:36.303Z,20.80
2019-04-25T10:12:05.707Z,21.10
2019-04-25T10:14:59.970Z,21.30
2019-04-25T10:17:29.245Z,21.40
2019-04-25T10:19:58.515Z,21.40
2019-04-25T10:22:29.033Z,21.40
2019-04-25T10:25:00.701Z,21.50
2019-04-25T10:27:29.570Z,21.90
2019-04-25T10:29:58.854Z,21.70
2019-04-25T10:32:28.364Z,21.60
2019-04-25T10:34:57.648Z,22.00
2019-04-25T10:37:26.993Z,22.20
2019-04-25T10:39:56.582Z,22.30
2019-04-25T10:42:26.190Z,22.30
2019-04-25T10:44:56.614Z,22.80
2019-04-25T10:47:26.055Z,22.90
2019-04-25T10:49:55.551Z,22.90
2019-04-25T10:52:25.130Z,22.80
2019-04-25T10:54:54.437Z,22.90
2019-04-25T10:57:24.923Z,23.10
2019-04-25T11:00:06.286Z,23.10
2019-04-25T11:02:26.939Z,23.20
2019-04-25T11:05:07.147Z,23.20
2019-04-25T11:07:36.704Z,23.40
2019-04-25T11:10:08.127Z,23.70
2019-04-25T11:12:37.657Z,23.50
2019-04-25T11:15:07.711Z,23.80
2019-04-25T11:17:37.061Z,24.00
2019-04-25T11:20:06.988Z,23.90
2019-04-25T11:22:36.601Z,24.10
2019-04-25T11:25:06.110Z,24.30
2019-04-25T11:27:35.667Z,24.50
2019-04-25T11:30:10.926Z,24.50
2019-04-25T11:32:37.282Z,24.80
2019-04-25T11:35:07.411Z,24.90
2019-04-25T11:37:37.015Z,25.30
2019-04-25T11:40:15.544Z,25.40
2019-04-25T11:42:45.971Z,25.40
2019-04-25T11:45:16.058Z,25.20
2019-04-25T11:47:46.961Z,25.70
2019-04-25T11:50:17.029Z,25.60
2019-04-25T11:52:46.928Z,25.90
2019-04-25T11:55:16.516Z,26.10
2019-04-25T11:57:49.866Z,26.20
2019-04-25T12:00:22.287Z,26.30
2019-04-25T12:02:50.907Z,26.10
2019-04-25T12:05:20.716Z,26.00
2019-04-25T12:07:50.327Z,26.30
2019-04-25T12:10:20.647Z,26.40
2019-04-25T12:12:49.940Z,27.00
2019-04-25T12:15:19.265Z,27.50
2019-04-25T12:17:49.528Z,27.80
2019-04-25T12:20:18.978Z,27.90
2019-04-25T12:22:48.589Z,27.80
2019-04-25T12:25:17.933Z,28.10
2019-04-25T12:27:48.655Z,28.50
2019-04-25T12:30:18.844Z,28.50
2019-04-25T12:32:48.122Z,28.60
2019-04-25T12:35:17.387Z,28.40
2019-04-25T12:37:48.013Z,28.50
2019-04-25T12:40:17.658Z,28.50
2019-04-25T12:42:47.848Z,28.70
2019-04-25T12:45:21.776Z,28.80
2019-04-25T12:47:57.268Z,28.90
2019-04-25T12:50:24.717Z,29.10
2019-04-25T12:52:55.045Z,29.50
2019-04-25T12:55:25.057Z,29.80
2019-04-25T12:57:55.402Z,30.40
2019-04-25T13:00:27.035Z,30.50
2019-04-25T13:02:56.708Z,30.60
2019-04-25T13:05:25.911Z,30.30
2019-04-25T13:07:57.397Z,30.60
2019-04-25T13:10:26.184Z,30.60
2019-04-25T13:12:55.556Z,30.90
2019-04-25T13:15:25.790Z,31.20
2019-04-25T13:17:56.229Z,31.40
2019-04-25T13:20:25.572Z,31.40
2019-04-25T13:22:55.829Z,31.00
2019-04-25T13:25:25.163Z,31.20
2019-04-25T13:27:56.070Z,30.90
2019-04-25T13:30:29.647Z,31.50
2019-04-25T13:33:00.559Z,31.50
2019-04-25T13:35:31.471Z,32.00
2019-04-25T13:38:01.343Z,32.20
2019-04-25T13:40:30.702Z,31.80
2019-04-25T13:43:00.149Z,31.30
2019-04-25T13:45:29.515Z,31.20
2019-04-25T13:47:59.112Z,31.20
2019-04-25T13:50:29.632Z,31.50
2019-04-25T13:52:58.980Z,31.60
2019-04-25T13:55:28.552Z,31.60
2019-04-25T13:57:58.154Z,31.60
2019-04-25T14:00:27.816Z,31.80
2019-04-25T14:02:57.040Z,31.90
2019-04-25T14:05:28.284Z,32.40
2019-04-25T14:07:57.914Z,32.60
2019-04-25T14:10:28.077Z,32.20
2019-04-25T14:12:57.449Z,32.60
2019-04-25T14:15:27.507Z,32.90
2019-04-25T14:18:01.185Z,33.00
2019-04-25T14:20:34.825Z,33.20
2019-04-25T14:23:05.478Z,33.20
2019-04-25T14:25:35.298Z,33.30
2019-04-25T14:28:05.660Z,33.50
2019-04-25T14:30:36.031Z,33.80
2019-04-25T14:33:05.620Z,33.70
2019-04-25T14:35:35.274Z,33.50
2019-04-25T14:38:04.550Z,32.90
2019-04-25T14:40:33.904Z,33.00
2019-04-25T14:43:04.851Z,33.30
2019-04-25T14:45:43.027Z,33.40
2019-04-25T14:48:05.497Z,33.30
2019-04-25T14:50:36.143Z,33.40
2019-04-25T14:53:06.340Z,33.40
2019-04-25T14:55:43.391Z,33.20
2019-04-25T14:58:14.500Z,32.90
2019-04-25T15:00:45.485Z,32.60
2019-04-25T15:03:14.764Z,32.10
2019-04-25T15:05:44.393Z,32.40
2019-04-25T15:08:14.000Z,32.40
2019-04-25T15:10:43.287Z,32.10
2019-04-25T15:13:12.907Z,32.30
2019-04-25T15:15:42.810Z,32.30
2019-04-25T15:18:12.438Z,32.50
2019-04-25T15:20:42.038Z,32.50
2019-04-25T15:23:11.309Z,32.70
2019-04-25T15:25:41.250Z,32.80
2019-04-25T15:28:10.650Z,32.90
2019-04-25T15:30:40.504Z,32.70
2019-04-25T15:33:10.081Z,32.20
2019-04-25T15:35:50.205Z,32.20
2019-04-25T15:38:27.309Z,32.30
2019-04-25T15:41:14.617Z,32.00
2019-04-25T15:43:57.503Z,31.90
2019-04-25T15:46:28.424Z,31.80
2019-04-25T15:48:57.699Z,32.10
2019-04-25T15:51:27.302Z,32.00
2019-04-25T15:53:56.576Z,31.90
2019-04-25T15:56:26.163Z,31.90
2019-04-25T15:58:55.435Z,31.80
2019-04-25T16:01:26.353Z,31.80
2019-04-25T16:03:55.668Z,31.30
2019-04-25T16:06:25.546Z,31.30
2019-04-25T16:08:55.874Z,31.30
2019-04-25T16:11:26.558Z,31.20
2019-04-25T16:13:55.886Z,30.90
2019-04-25T16:16:26.746Z,30.90
2019-04-25T16:18:56.571Z,30.80
2019-04-25T16:21:26.749Z,31.00
2019-04-25T16:23:56.980Z,30.90
2019-04-25T16:26:26.982Z,30.80
2019-04-25T16:28:57.561Z,30.80
2019-04-25T16:31:28.903Z,31.00
2019-04-25T16:33:58.021Z,31.30
2019-04-25T16:36:27.360Z,31.60
2019-04-25T16:38:56.651Z,32.00
2019-04-25T16:41:25.996Z,32.10
2019-04-25T16:43:56.915Z,31.00
2019-04-25T16:46:27.762Z,30.70
2019-04-25T16:48:58.254Z,30.60
2019-04-25T16:51:28.330Z,30.50
2019-04-25T16:53:57.737Z,30.10
2019-04-25T16:56:27.009Z,29.80
2019-04-25T16:58:56.551Z,29.60
2019-04-25T17:01:25.886Z,29.50
2019-04-25T17:03:55.166Z,29.50
2019-04-25T17:06:24.958Z,29.40
2019-04-25T17:08:54.498Z,29.40
2019-04-25T17:11:23.839Z,29.40
2019-04-25T17:13:54.744Z,29.30
2019-04-25T17:16:29.552Z,29.20
2019-04-25T17:19:01.457Z,29.00
2019-04-25T17:21:31.327Z,28.80
2019-04-25T17:24:01.123Z,28.90
2019-04-25T17:26:31.469Z,28.80
2019-04-25T17:29:02.549Z,28.50
2019-04-25T17:31:49.936Z,28.30
2019-04-25T17:34:20.851Z,28.00
2019-04-25T17:37:08.582Z,28.00
2019-04-25T17:39:39.808Z,27.80
2019-04-25T17:42:09.155Z,27.60
2019-04-25T17:44:38.458Z,27.50
2019-04-25T17:47:08.040Z,27.40
2019-04-25T17:49:37.315Z,27.10
2019-04-25T17:52:06.838Z,27.00
2019-04-25T17:54:36.707Z,26.50
2019-04-25T17:57:06.567Z,25.80
2019-04-25T17:59:36.831Z,25.40
2019-04-25T18:02:06.267Z,25.30
2019-04-25T18:04:35.546Z,24.70
2019-04-25T18:07:04.984Z,24.00
2019-04-25T18:09:34.448Z,23.60
2019-04-25T18:12:05.058Z,23.10
2019-04-25T18:14:35.192Z,23.00
2019-04-25T18:17:04.797Z,22.60
2019-04-25T18:19:36.356Z,22.20
2019-04-25T18:22:10.344Z,22.00
2019-04-25T18:24:57.165Z,21.80
2019-04-25T18:27:28.077Z,21.80
2019-04-25T18:29:57.356Z,21.70
2019-04-25T18:32:28.529Z,21.40
2019-04-25T18:34:59.684Z,21.20
2019-04-25T18:37:30.591Z,21.10
2019-04-25T18:40:10.216Z,20.90
2019-04-25T18:42:57.502Z,20.30
2019-04-25T18:45:28.792Z,20.10
2019-04-25T18:47:58.061Z,20.00
2019-04-25T18:50:28.978Z,19.80
2019-04-25T18:53:16.040Z,19.60
2019-04-25T18:55:49.816Z,19.10
2019-04-25T18:58:39.811Z,18.70
2019-04-25T19:01:10.754Z,18.60
2019-04-25T19:03:58.055Z,18.40
2019-04-25T19:06:28.554Z,18.30
2019-04-25T19:08:57.831Z,18.10
2019-04-25T19:11:27.349Z,17.90
2019-04-25T19:13:56.966Z,17.80
2019-04-25T19:16:26.491Z,17.70
2019-04-25T19:18:56.082Z,17.60
2019-04-25T19:21:25.425Z,17.40
2019-04-25T19:23:54.696Z,17.30
2019-04-25T19:26:23.970Z,17.00
2019-04-25T19:28:53.592Z,16.70
2019-04-25T19:31:23.198Z,16.60
2019-04-25T19:33:52.807Z,16.50
2019-04-25T19:36:22.085Z,16.40
2019-04-25T19:38:52.436Z,16.10
2019-04-25T19:41:23.404Z,15.90
2019-04-25T19:43:54.618Z,15.80
2019-04-25T19:46:25.798Z,15.60
2019-04-25T19:48:55.049Z,15.50
2019-04-25T19:51:26.465Z,15.30
2019-04-25T19:53:55.611Z,15.30
2019-04-25T19:56:24.880Z,15.20
2019-04-25T19:58:54.218Z,15.20
2019-04-25T20:01:23.833Z,15.10
2019-04-25T20:04:10.926Z,15.10
2019-04-25T20:06:58.244Z,15.00
2019-04-25T20:09:45.584Z,14.90
2019-04-25T20:12:14.862Z,15.00
2019-04-25T20:14:45.442Z,14.90
2019-04-25T20:17:15.021Z,14.70
2019-04-25T20:19:44.914Z,14.70
2019-04-25T20:22:15.055Z,14.40
2019-04-25T20:24:45.318Z,14.40
2019-04-25T20:27:15.343Z,14.30
2019-04-25T20:29:45.228Z,14.20
2019-04-25T20:32:15.669Z,14.20
2019-04-25T20:34:46.058Z,14.20
2019-04-25T20:37:16.183Z,14.10
2019-04-25T20:39:46.032Z,14.20
2019-04-25T20:42:15.313Z,14.10
2019-04-25T20:44:45.410Z,13.80
2019-04-25T20:47:15.709Z,13.80
2019-04-25T20:49:46.612Z,13.70
2019-04-25T20:52:15.940Z,13.80
2019-04-25T20:54:45.217Z,13.70
2019-04-25T20:57:14.487Z,13.60
2019-04-25T20:59:43.764Z,13.50
2019-04-25T21:02:13.388Z,13.40
2019-04-25T21:04:42.661Z,13.30
2019-04-25T21:07:12.497Z,13.40
2019-04-25T21:09:41.763Z,13.40
2019-04-25T21:12:11.307Z,13.30
2019-04-25T21:14:51.030Z,13.30
2019-04-25T21:17:22.297Z,13.10
2019-04-25T21:19:56.314Z,13.10
2019-04-25T21:22:26.017Z,13.00
2019-04-25T21:24:55.831Z,13.00
2019-04-25T21:27:25.534Z,13.00
2019-04-25T21:29:55.609Z,13.00
2019-04-25T21:32:24.970Z,12.90
2019-04-25T21:34:55.214Z,12.80
2019-04-25T21:37:25.826Z,12.80
2019-04-25T21:39:58.034Z,12.60
2019-04-25T21:42:29.642Z,12.50
2019-04-25T21:45:00.406Z,12.50
2019-04-25T21:47:29.724Z,12.40
2019-04-25T21:49:59.280Z,12.30
2019-04-25T21:52:29.086Z,12.30
2019-04-25T21:54:59.547Z,12.40
2019-04-25T21:57:29.431Z,12.30
2019-04-25T22:00:06.652Z,12.20
2019-04-25T22:02:30.898Z,12.20
2019-04-25T22:05:00.574Z,12.20
2019-04-25T22:07:30.425Z,12.20
2019-04-25T22:10:00.216Z,12.30
2019-04-25T22:12:29.492Z,12.20
2019-04-25T22:14:59.325Z,12.20
2019-04-25T22:17:28.850Z,12.10
2019-04-25T22:19:58.464Z,12.10
2019-04-25T22:22:28.026Z,12.00
2019-04-25T22:24:58.519Z,12.00
2019-04-25T22:27:29.502Z,11.90
2019-04-25T22:29:59.889Z,11.90
2019-04-25T22:32:34.169Z,11.80
2019-04-25T22:35:08.124Z,11.80
2019-04-25T22:37:37.396Z,11.70
2019-04-25T22:40:07.499Z,11.70
2019-04-25T22:42:36.735Z,11.70
2019-04-25T22:45:08.002Z,11.80
2019-04-25T22:47:37.511Z,11.80
2019-04-25T22:50:08.581Z,11.70
2019-04-25T22:52:38.516Z,11.70
2019-04-25T22:55:08.329Z,11.70
2019-04-25T22:57:37.884Z,11.60
2019-04-25T23:00:09.700Z,11.60
2019-04-25T23:02:41.152Z,11.60
2019-04-25T23:05:22.558Z,11.50
2019-04-25T23:07:51.838Z,11.50
2019-04-25T23:10:21.380Z,11.50
2019-04-25T23:12:50.658Z,11.40
2019-04-25T23:15:19.937Z,11.40
2019-04-25T23:17:49.556Z,11.40
2019-04-25T23:20:19.107Z,11.40
2019-04-25T23:22:48.379Z,11.50
2019-04-25T23:25:19.569Z,11.50
2019-04-25T23:28:02.421Z,11.50
2019-04-25T23:30:34.502Z,11.40
2019-04-25T23:33:04.092Z,11.40
2019-04-25T23:35:35.228Z,11.40
2019-04-25T23:38:05.718Z,11.40
2019-04-25T23:40:35.381Z,11.40
2019-04-25T23:43:05.209Z,11.30
2019-04-25T23:45:34.742Z,11.30
2019-04-25T23:48:03.978Z,11.30
2019-04-25T23:50:33.431Z,11.30
2019-04-25T23:53:02.707Z,11.20
2019-04-25T23:55:32.354Z,11.20
2019-04-25T23:58:01.627Z,11.20
